Terminal Aerodrome Forecast
Issued by NWS

Home | Current Version | Previous Version | Text Only | Print | Product List | Glossary On
Versions: 1 2 3 4 5 6 7 8 9 10 11 12 13
945
FTUS46 KLOX 181741
TAFPMD
TAF
KPMD 181741Z 1818/1918 27015KT P6SM SKC
     FM181900 25018G28KT P6SM SKC
     FM182100 24028G38KT 6SM BLDU SKC
     FM190300 24020G30KT P6SM SKC
     FM190800 26025G35KT P6SM SCT080 BKN150=

USA.gov is the U.S. government's official web portal to all federal, state and local government web resources and services.